KMMK 161353Z AUTO 30012G17KT 10SM CLR 10/M01 A3012 RMK AO2 SLP198 T01001006 $